createdAt,value
2022-10-08T00:01:19.606Z,99.90
2022-10-08T00:03:51.459Z,99.90
2022-10-08T00:06:37.111Z,99.90
2022-10-08T00:09:06.842Z,99.90
2022-10-08T00:11:38.155Z,99.90
2022-10-08T00:14:06.588Z,99.90
2022-10-08T00:16:37.072Z,99.90
2022-10-08T00:19:07.790Z,99.90
2022-10-08T00:21:37.717Z,99.90
2022-10-08T00:24:07.849Z,99.90
2022-10-08T00:26:41.232Z,99.90
2022-10-08T00:29:13.995Z,99.90
2022-10-08T00:31:45.508Z,99.90
2022-10-08T00:34:16.057Z,99.90
2022-10-08T00:36:43.627Z,99.90
2022-10-08T00:39:16.541Z,99.90
2022-10-08T00:41:48.790Z,99.90
2022-10-08T00:44:43.862Z,99.90
2022-10-08T00:47:36.985Z,99.90
2022-10-08T00:50:07.522Z,99.90
2022-10-08T00:52:39.576Z,99.90
2022-10-08T00:55:10.035Z,99.90
2022-10-08T00:57:38.468Z,99.90
2022-10-08T01:00:13.156Z,99.90
2022-10-08T01:02:40.640Z,99.90
2022-10-08T01:05:08.876Z,99.90
2022-10-08T01:08:11.294Z,99.90
2022-10-08T01:10:56.280Z,99.90
2022-10-08T01:13:46.664Z,99.90
2022-10-08T01:16:46.453Z,99.90
2022-10-08T01:19:29.013Z,99.90
2022-10-08T01:22:36.240Z,99.90
2022-10-08T01:25:34.044Z,99.90
2022-10-08T01:28:29.662Z,99.90
2022-10-08T01:31:26.682Z,99.90
2022-10-08T01:34:04.470Z,99.90
2022-10-08T01:36:43.350Z,99.90
2022-10-08T01:39:15.176Z,99.90
2022-10-08T01:41:47.356Z,99.90
2022-10-08T01:44:38.883Z,99.90
2022-10-08T01:47:11.499Z,99.90
2022-10-08T01:50:05.577Z,99.90
2022-10-08T01:52:38.484Z,99.90
2022-10-08T01:55:15.503Z,99.90
2022-10-08T01:57:44.372Z,99.90
2022-10-08T02:00:14.425Z,99.90
2022-10-08T02:02:42.858Z,99.90
2022-10-08T02:05:11.656Z,99.90
2022-10-08T02:07:43.548Z,99.90
2022-10-08T02:10:21.906Z,99.90
2022-10-08T02:12:50.194Z,99.90
2022-10-08T02:15:54.992Z,99.90
2022-10-08T02:18:47.651Z,99.90
2022-10-08T02:21:28.178Z,99.90
2022-10-08T02:24:21.703Z,99.90
2022-10-08T02:26:57.423Z,99.90
2022-10-08T02:29:30.524Z,99.90
2022-10-08T02:32:03.657Z,99.90
2022-10-08T02:34:46.366Z,99.90
2022-10-08T02:37:26.583Z,99.90
2022-10-08T02:40:01.566Z,99.90
2022-10-08T02:42:32.341Z,99.90
2022-10-08T02:45:07.556Z,99.90
2022-10-08T02:47:38.574Z,99.90
2022-10-08T02:50:11.962Z,99.90
2022-10-08T02:52:42.117Z,99.90
2022-10-08T02:55:36.589Z,99.90
2022-10-08T02:58:08.411Z,99.90
2022-10-08T03:00:53.364Z,99.90
2022-10-08T03:03:32.778Z,99.90
2022-10-08T03:06:05.171Z,99.90
2022-10-08T03:08:35.413Z,99.90
2022-10-08T03:11:03.778Z,99.90
2022-10-08T03:13:38.370Z,99.90
2022-10-08T03:16:08.907Z,99.90
2022-10-08T03:18:40.079Z,99.90
2022-10-08T03:21:09.973Z,99.90
2022-10-08T03:23:37.094Z,99.90
2022-10-08T03:26:04.333Z,99.90
2022-10-08T03:28:32.037Z,99.90
2022-10-08T03:31:03.382Z,99.90
2022-10-08T03:33:30.715Z,99.90
2022-10-08T03:35:59.309Z,99.90
2022-10-08T03:38:26.511Z,99.90
2022-10-08T03:40:59.009Z,99.90
2022-10-08T03:43:32.942Z,99.90
2022-10-08T03:46:00.806Z,99.90
2022-10-08T03:48:28.701Z,99.90
2022-10-08T03:50:58.122Z,99.90
2022-10-08T03:53:26.973Z,99.90
2022-10-08T03:55:54.668Z,99.90
2022-10-08T03:58:21.933Z,99.90
2022-10-08T04:01:00.308Z,99.90
2022-10-08T04:03:29.130Z,99.90
2022-10-08T04:05:57.027Z,99.90
2022-10-08T04:08:25.262Z,99.90
2022-10-08T04:10:53.292Z,99.90
2022-10-08T04:13:21.087Z,99.90
2022-10-08T04:15:50.785Z,99.90
2022-10-08T04:18:18.555Z,99.90
2022-10-08T04:20:45.794Z,99.90
2022-10-08T04:23:12.973Z,99.90
2022-10-08T04:25:49.901Z,99.90
2022-10-08T04:28:17.454Z,99.90
2022-10-08T04:31:04.689Z,99.90
2022-10-08T04:33:35.040Z,99.90
2022-10-08T04:36:07.312Z,99.90
2022-10-08T04:38:34.627Z,99.90
2022-10-08T04:41:05.880Z,99.90
2022-10-08T04:43:34.235Z,99.90
2022-10-08T04:46:01.504Z,99.90
2022-10-08T04:48:29.208Z,99.90
2022-10-08T04:50:58.663Z,99.90
2022-10-08T04:53:25.846Z,99.90
2022-10-08T04:55:54.289Z,99.90
2022-10-08T04:58:25.834Z,99.90
2022-10-08T05:00:53.067Z,99.90
2022-10-08T05:03:20.275Z,99.90
2022-10-08T05:05:47.693Z,99.90
2022-10-08T05:08:14.917Z,99.90
2022-10-08T05:10:49.102Z,99.90
2022-10-08T05:13:16.431Z,99.90
2022-10-08T05:15:43.641Z,99.90
2022-10-08T05:18:11.117Z,99.90
2022-10-08T05:20:38.794Z,99.90
2022-10-08T05:23:06.209Z,99.90
2022-10-08T05:25:34.743Z,99.90
2022-10-08T05:28:03.861Z,99.90
2022-10-08T05:30:31.427Z,99.90
2022-10-08T05:32:58.866Z,99.90
2022-10-08T05:35:26.122Z,99.90
2022-10-08T05:37:53.386Z,99.90
2022-10-08T05:40:21.009Z,99.90
2022-10-08T05:42:48.417Z,99.90
2022-10-08T05:45:16.045Z,99.90
2022-10-08T05:47:43.495Z,99.90
2022-10-08T05:50:10.657Z,99.90
2022-10-08T05:52:38.012Z,99.90
2022-10-08T05:55:06.203Z,99.90
2022-10-08T05:57:33.447Z,99.90
2022-10-08T06:00:01.101Z,99.90
2022-10-08T06:02:38.791Z,99.90
2022-10-08T06:05:06.517Z,99.90
2022-10-08T06:07:33.771Z,99.90
2022-10-08T06:10:01.172Z,99.90
2022-10-08T06:12:28.442Z,99.90
2022-10-08T06:14:55.694Z,99.90
2022-10-08T06:17:23.126Z,99.90
2022-10-08T06:19:50.258Z,99.90
2022-10-08T06:22:17.489Z,99.90
2022-10-08T06:24:44.920Z,99.90
2022-10-08T06:27:12.028Z,99.90
2022-10-08T06:29:39.176Z,99.90
2022-10-08T06:32:06.844Z,99.90
2022-10-08T06:34:34.030Z,99.90
2022-10-08T06:37:01.165Z,99.90
2022-10-08T06:39:28.726Z,99.90
2022-10-08T06:41:55.965Z,99.90
2022-10-08T06:44:23.448Z,99.90
2022-10-08T06:46:51.173Z,99.90
2022-10-08T06:49:19.662Z,99.90
2022-10-08T06:51:47.048Z,99.90
2022-10-08T06:54:14.481Z,99.90
2022-10-08T06:56:41.658Z,99.90
2022-10-08T06:59:09.300Z,99.90
2022-10-08T07:01:37.097Z,99.90
2022-10-08T07:04:06.860Z,99.90
2022-10-08T07:06:34.881Z,99.90
2022-10-08T07:09:03.752Z,99.90
2022-10-08T07:11:32.449Z,99.90
2022-10-08T07:14:00.850Z,99.90
2022-10-08T07:16:28.908Z,99.90
2022-10-08T07:18:58.644Z,99.90
2022-10-08T07:21:27.739Z,99.90
2022-10-08T07:23:55.114Z,99.90
2022-10-08T07:26:25.028Z,99.90
2022-10-08T07:28:54.152Z,99.90
2022-10-08T07:31:23.831Z,99.90
2022-10-08T07:33:51.273Z,99.90
2022-10-08T07:36:20.920Z,99.90
2022-10-08T07:38:48.678Z,99.90
2022-10-08T07:41:15.805Z,99.90
2022-10-08T07:43:43.406Z,99.90
2022-10-08T07:46:12.158Z,99.90
2022-10-08T07:48:39.988Z,99.90
2022-10-08T07:51:19.506Z,99.90
2022-10-08T07:53:47.373Z,99.90
2022-10-08T07:56:16.848Z,99.90
2022-10-08T07:58:44.359Z,99.90
2022-10-08T08:01:14.813Z,99.90
2022-10-08T08:03:43.405Z,99.90
2022-10-08T08:06:13.677Z,99.90
2022-10-08T08:08:44.874Z,99.90
2022-10-08T08:11:15.274Z,99.90
2022-10-08T08:13:43.075Z,99.90
2022-10-08T08:16:22.751Z,99.90
2022-10-08T08:18:52.773Z,99.90
2022-10-08T08:21:22.723Z,99.90
2022-10-08T08:23:52.393Z,99.90
2022-10-08T08:26:22.465Z,99.90
2022-10-08T08:28:58.727Z,99.90
2022-10-08T08:31:26.323Z,99.90
2022-10-08T08:33:57.149Z,99.90
2022-10-08T08:36:27.163Z,99.90
2022-10-08T08:38:55.060Z,99.90
2022-10-08T08:41:58.071Z,99.90
2022-10-08T08:44:31.039Z,99.90
2022-10-08T08:47:12.626Z,99.90
2022-10-08T08:49:47.309Z,99.90
2022-10-08T08:52:21.212Z,99.90
2022-10-08T08:54:53.407Z,99.90
2022-10-08T08:57:32.444Z,99.90
2022-10-08T09:00:36.540Z,99.90
2022-10-08T09:03:24.515Z,99.90
2022-10-08T09:05:57.268Z,99.90
2022-10-08T09:08:39.909Z,99.90
2022-10-08T09:11:12.585Z,99.90
2022-10-08T09:13:56.667Z,99.90
2022-10-08T09:16:26.956Z,99.90
2022-10-08T09:18:54.834Z,99.90
2022-10-08T09:21:26.028Z,99.90
2022-10-08T09:23:53.571Z,99.90
2022-10-08T09:26:31.859Z,99.90
2022-10-08T09:29:00.839Z,99.90
2022-10-08T09:31:39.969Z,99.90
2022-10-08T09:34:10.061Z,99.90
2022-10-08T09:37:04.955Z,99.90
2022-10-08T09:39:35.899Z,99.90
2022-10-08T09:42:17.630Z,99.90
2022-10-08T09:44:52.478Z,99.90
2022-10-08T09:47:24.627Z,99.90
2022-10-08T09:50:13.621Z,99.90
2022-10-08T09:52:41.854Z,99.90
2022-10-08T09:55:19.094Z,99.90
2022-10-08T09:57:50.006Z,99.90
2022-10-08T10:00:37.248Z,99.90
2022-10-08T10:03:07.194Z,99.90
2022-10-08T10:05:36.258Z,99.90
2022-10-08T10:08:04.948Z,99.90
2022-10-08T10:10:35.183Z,99.90
2022-10-08T10:13:02.551Z,99.90
2022-10-08T10:15:40.745Z,99.90
2022-10-08T10:18:20.915Z,99.90
2022-10-08T10:20:54.495Z,99.90
2022-10-08T10:23:32.294Z,99.90
2022-10-08T10:26:29.164Z,99.90
2022-10-08T10:29:05.690Z,99.90
2022-10-08T10:31:46.101Z,99.90
2022-10-08T10:34:21.694Z,99.90
2022-10-08T10:36:55.835Z,99.90
2022-10-08T10:39:51.959Z,99.90
2022-10-08T10:42:21.882Z,99.90
2022-10-08T10:44:56.219Z,99.90
2022-10-08T10:47:31.002Z,99.70
2022-10-08T10:50:01.757Z,99.90
2022-10-08T10:52:47.444Z,99.70
2022-10-08T10:55:40.416Z,99.60
2022-10-08T10:58:33.385Z,98.90
2022-10-08T11:01:15.679Z,98.20
2022-10-08T11:04:08.902Z,97.90
2022-10-08T11:06:58.932Z,97.90
2022-10-08T11:09:38.244Z,98.80
2022-10-08T11:12:25.395Z,99.50
2022-10-08T11:14:55.509Z,99.60
2022-10-08T11:17:47.387Z,97.30
2022-10-08T11:20:39.862Z,96.00
2022-10-08T11:23:33.371Z,94.10
2022-10-08T11:26:21.810Z,94.60
2022-10-08T11:29:01.227Z,94.00
2022-10-08T11:31:44.779Z,93.50
2022-10-08T11:34:32.628Z,92.70
2022-10-08T11:37:20.811Z,91.30
2022-10-08T11:40:06.670Z,91.60
2022-10-08T11:42:52.416Z,90.50
2022-10-08T11:45:28.560Z,87.60
2022-10-08T11:47:58.411Z,84.50
2022-10-08T11:50:33.228Z,83.30
2022-10-08T11:53:12.461Z,82.60
2022-10-08T11:55:49.047Z,82.30
2022-10-08T11:58:21.074Z,81.30
2022-10-08T12:00:50.172Z,80.80
2022-10-08T12:03:27.303Z,82.30
2022-10-08T12:06:16.968Z,82.70
2022-10-08T12:08:53.757Z,84.10
2022-10-08T12:11:30.175Z,85.90
2022-10-08T12:14:15.503Z,86.00
2022-10-08T12:16:48.762Z,87.40
2022-10-08T12:19:34.332Z,86.90
2022-10-08T12:22:17.691Z,86.30
2022-10-08T12:24:50.051Z,86.20
2022-10-08T12:27:18.447Z,86.10
2022-10-08T12:30:11.313Z,84.80
2022-10-08T12:32:41.704Z,85.00
2022-10-08T12:35:31.956Z,85.50
2022-10-08T12:38:14.220Z,84.60
2022-10-08T12:41:16.131Z,84.20
2022-10-08T12:44:26.673Z,85.60
2022-10-08T12:47:41.872Z,85.90
2022-10-08T12:50:36.284Z,86.70
2022-10-08T12:53:05.395Z,86.40
2022-10-08T12:55:52.421Z,87.60
2022-10-08T12:58:23.585Z,88.00
2022-10-08T13:01:02.954Z,88.50
2022-10-08T13:03:30.357Z,88.30
2022-10-08T13:05:58.318Z,88.30
2022-10-08T13:08:38.779Z,86.80
2022-10-08T13:11:10.539Z,85.90
2022-10-08T13:13:40.397Z,87.10
2022-10-08T13:16:28.641Z,87.20
2022-10-08T13:18:58.736Z,87.80
2022-10-08T13:21:26.850Z,88.10
2022-10-08T13:23:54.553Z,88.00
2022-10-08T13:26:52.348Z,88.60
2022-10-08T13:29:31.503Z,88.90
2022-10-08T13:32:14.174Z,88.90
2022-10-08T13:34:41.481Z,88.90
2022-10-08T13:37:36.239Z,89.50
2022-10-08T13:40:13.010Z,90.00
2022-10-08T13:42:46.491Z,90.20
2022-10-08T13:45:15.529Z,90.20
2022-10-08T13:47:42.802Z,90.50
2022-10-08T13:50:10.448Z,90.80
2022-10-08T13:52:46.072Z,91.00
2022-10-08T13:55:36.755Z,91.40
2022-10-08T13:58:06.323Z,91.70
2022-10-08T14:00:36.904Z,92.00
2022-10-08T14:03:04.190Z,92.30
2022-10-08T14:05:35.425Z,92.70
2022-10-08T14:08:07.367Z,93.10
2022-10-08T14:10:35.020Z,93.40
2022-10-08T14:13:02.199Z,93.70
2022-10-08T14:15:29.323Z,94.10
2022-10-08T14:17:56.718Z,94.60
2022-10-08T14:20:24.170Z,95.00
2022-10-08T14:22:51.648Z,95.40
2022-10-08T14:25:22.120Z,96.10
2022-10-08T14:27:49.966Z,96.90
2022-10-08T14:30:18.256Z,97.20
2022-10-08T14:32:45.774Z,97.70
2022-10-08T14:35:13.455Z,98.40
2022-10-08T14:37:40.723Z,99.20
2022-10-08T14:40:11.869Z,99.60
2022-10-08T14:42:39.076Z,99.90
2022-10-08T14:45:07.074Z,99.90
2022-10-08T14:47:34.561Z,99.90
2022-10-08T14:50:01.845Z,99.90
2022-10-08T14:52:29.425Z,99.90
2022-10-08T14:54:56.743Z,99.90
2022-10-08T14:57:23.926Z,99.90
2022-10-08T14:59:51.162Z,99.90
2022-10-08T15:02:18.736Z,99.90
2022-10-08T15:04:46.214Z,99.90
2022-10-08T15:07:13.337Z,99.90
2022-10-08T15:09:41.529Z,99.90
2022-10-08T15:12:08.846Z,99.90
2022-10-08T15:14:38.389Z,99.90
2022-10-08T15:17:06.216Z,99.90
2022-10-08T15:19:33.441Z,99.90
2022-10-08T15:22:00.724Z,99.90
2022-10-08T15:24:28.101Z,99.90
2022-10-08T15:26:55.570Z,99.90
2022-10-08T15:29:22.831Z,99.90
2022-10-08T15:31:51.364Z,99.90
2022-10-08T15:34:20.231Z,99.90
2022-10-08T15:36:47.522Z,99.90
2022-10-08T15:39:17.394Z,99.90
2022-10-08T15:41:47.324Z,99.90
2022-10-08T15:44:20.482Z,99.90
2022-10-08T15:46:50.341Z,99.90
2022-10-08T15:49:17.535Z,99.90
2022-10-08T15:51:44.759Z,99.90
2022-10-08T15:54:12.435Z,99.90
2022-10-08T15:56:40.304Z,99.90
2022-10-08T15:59:07.562Z,99.90
2022-10-08T16:01:35.044Z,99.90
2022-10-08T16:04:02.296Z,99.90
2022-10-08T16:06:33.858Z,99.90
2022-10-08T16:09:02.217Z,99.90
2022-10-08T16:11:32.351Z,99.90
2022-10-08T16:14:10.017Z,99.90
2022-10-08T16:16:38.814Z,99.90
2022-10-08T16:19:11.916Z,99.90
2022-10-08T16:21:40.341Z,99.90
2022-10-08T16:24:07.860Z,99.90
2022-10-08T16:26:35.686Z,99.90
2022-10-08T16:29:06.913Z,99.90
2022-10-08T16:31:38.065Z,99.90
2022-10-08T16:34:08.443Z,99.90
2022-10-08T16:36:36.785Z,99.90
2022-10-08T16:39:06.242Z,99.90
2022-10-08T16:41:35.172Z,99.90
2022-10-08T16:44:11.990Z,99.90
2022-10-08T16:46:43.074Z,99.90
2022-10-08T16:49:25.530Z,99.90
2022-10-08T16:51:59.691Z,99.90
2022-10-08T16:54:27.740Z,99.90
2022-10-08T16:56:55.781Z,99.90
2022-10-08T16:59:25.781Z,99.90
2022-10-08T17:01:55.691Z,99.90
2022-10-08T17:04:25.403Z,99.90
2022-10-08T17:06:52.621Z,99.90
2022-10-08T17:09:20.785Z,99.90
2022-10-08T17:11:48.584Z,99.90
2022-10-08T17:14:15.994Z,99.90
2022-10-08T17:16:43.605Z,99.90
2022-10-08T17:19:12.208Z,99.90
2022-10-08T17:21:39.723Z,99.90
2022-10-08T17:24:09.901Z,99.90
2022-10-08T17:26:38.132Z,99.90
2022-10-08T17:29:07.939Z,99.90
2022-10-08T17:31:36.644Z,99.90
2022-10-08T17:34:04.344Z,99.90
2022-10-08T17:36:33.851Z,99.90
2022-10-08T17:39:03.386Z,99.90
2022-10-08T17:41:33.808Z,99.90
2022-10-08T17:44:03.595Z,99.90
2022-10-08T17:46:36.557Z,99.90
2022-10-08T17:49:04.609Z,99.90
2022-10-08T17:51:32.344Z,99.90
2022-10-08T17:54:02.300Z,99.90
2022-10-08T17:56:30.749Z,99.90
2022-10-08T17:58:58.409Z,99.90
2022-10-08T18:01:29.710Z,99.90
2022-10-08T18:03:59.657Z,99.90
2022-10-08T18:06:28.290Z,99.90
2022-10-08T18:09:00.959Z,99.90
2022-10-08T18:11:29.986Z,99.90
2022-10-08T18:13:57.415Z,99.90
2022-10-08T18:16:25.460Z,99.90
2022-10-08T18:18:53.121Z,99.90
2022-10-08T18:21:21.118Z,99.90
2022-10-08T18:23:49.003Z,99.90
2022-10-08T18:26:25.220Z,99.90
2022-10-08T18:28:55.623Z,99.90
2022-10-08T18:31:26.231Z,99.90
2022-10-08T18:33:58.980Z,99.90
2022-10-08T18:36:29.228Z,99.90
2022-10-08T18:38:58.744Z,99.90
2022-10-08T18:41:32.609Z,99.90
2022-10-08T18:44:00.772Z,99.90
2022-10-08T18:46:28.596Z,99.90
2022-10-08T18:48:56.294Z,99.90
2022-10-08T18:51:26.166Z,99.90
2022-10-08T18:53:54.761Z,99.90
2022-10-08T18:56:29.085Z,99.90
2022-10-08T18:58:58.325Z,99.90
2022-10-08T19:01:27.915Z,99.90
2022-10-08T19:03:57.778Z,99.90
2022-10-08T19:06:28.625Z,99.90
2022-10-08T19:08:56.719Z,99.90
2022-10-08T19:11:38.497Z,99.90
2022-10-08T19:14:11.224Z,99.90
2022-10-08T19:16:39.648Z,99.90
2022-10-08T19:19:12.410Z,99.90
2022-10-08T19:21:40.122Z,99.90
2022-10-08T19:24:10.947Z,99.90
2022-10-08T19:26:38.181Z,99.90
2022-10-08T19:29:05.705Z,99.90
2022-10-08T19:31:35.231Z,99.90
2022-10-08T19:34:07.792Z,99.90
2022-10-08T19:36:37.548Z,99.90
2022-10-08T19:39:14.505Z,99.90
2022-10-08T19:41:42.722Z,99.90
2022-10-08T19:44:11.654Z,99.90
2022-10-08T19:46:39.360Z,99.90
2022-10-08T19:49:08.744Z,99.90
2022-10-08T19:51:36.165Z,99.90
2022-10-08T19:54:03.651Z,99.90
2022-10-08T19:56:32.571Z,99.90
2022-10-08T19:59:00.248Z,99.90
2022-10-08T20:01:30.872Z,99.90
2022-10-08T20:04:01.075Z,99.90
2022-10-08T20:06:31.244Z,99.90
2022-10-08T20:09:01.116Z,99.90
2022-10-08T20:11:30.260Z,99.90
2022-10-08T20:13:59.107Z,99.90
2022-10-08T20:16:28.970Z,99.90
2022-10-08T20:19:20.951Z,99.90
2022-10-08T20:21:49.611Z,99.90
2022-10-08T20:24:18.053Z,99.90
2022-10-08T20:26:45.623Z,99.90
2022-10-08T20:29:15.894Z,99.90
2022-10-08T20:31:55.165Z,99.90
2022-10-08T20:34:31.361Z,99.90
2022-10-08T20:37:01.609Z,99.90
2022-10-08T20:39:29.514Z,99.90
2022-10-08T20:41:56.969Z,99.90
2022-10-08T20:44:24.443Z,99.90
2022-10-08T20:46:52.524Z,99.90
2022-10-08T20:49:20.246Z,99.90
2022-10-08T20:51:48.009Z,99.90
2022-10-08T20:54:16.558Z,99.90
2022-10-08T20:56:44.370Z,99.90
2022-10-08T20:59:17.507Z,99.90
2022-10-08T21:01:45.367Z,99.90
2022-10-08T21:04:12.816Z,99.90
2022-10-08T21:06:42.859Z,99.90
2022-10-08T21:09:11.088Z,99.90
2022-10-08T21:11:38.707Z,99.90
2022-10-08T21:14:07.302Z,99.90
2022-10-08T21:16:38.070Z,99.90
2022-10-08T21:19:10.543Z,99.90
2022-10-08T21:21:37.988Z,99.90
2022-10-08T21:24:05.895Z,99.90
2022-10-08T21:26:36.631Z,99.90
2022-10-08T21:29:07.209Z,99.90
2022-10-08T21:31:37.043Z,99.90
2022-10-08T21:34:05.139Z,99.90
2022-10-08T21:36:38.332Z,99.90
2022-10-08T21:39:08.379Z,99.90
2022-10-08T21:41:37.228Z,99.90
2022-10-08T21:44:07.133Z,99.90
2022-10-08T21:46:38.730Z,99.90
2022-10-08T21:49:13.347Z,99.90
2022-10-08T21:51:41.080Z,99.90
2022-10-08T21:54:08.531Z,99.90
2022-10-08T21:56:38.583Z,99.90
2022-10-08T21:59:07.792Z,99.90
2022-10-08T22:01:38.375Z,99.90
2022-10-08T22:04:05.609Z,99.90
2022-10-08T22:06:35.929Z,99.90
2022-10-08T22:09:08.496Z,99.90
2022-10-08T22:11:35.955Z,99.90
2022-10-08T22:14:04.178Z,99.90
2022-10-08T22:16:31.535Z,99.90
2022-10-08T22:18:59.538Z,99.90
2022-10-08T22:21:27.031Z,99.90
2022-10-08T22:23:54.579Z,99.90
2022-10-08T22:26:34.057Z,99.90
2022-10-08T22:29:01.871Z,99.90
2022-10-08T22:31:29.762Z,99.90
2022-10-08T22:33:57.162Z,99.90
2022-10-08T22:36:26.860Z,99.90
2022-10-08T22:38:54.927Z,99.90
2022-10-08T22:41:30.572Z,99.90
2022-10-08T22:43:59.146Z,99.90
2022-10-08T22:46:31.871Z,99.90
2022-10-08T22:49:01.329Z,99.90
2022-10-08T22:51:29.352Z,99.90
2022-10-08T22:53:57.400Z,99.90
2022-10-08T22:56:27.751Z,99.90
2022-10-08T22:58:56.124Z,99.90
2022-10-08T23:01:24.713Z,99.90
2022-10-08T23:03:52.329Z,99.90
2022-10-08T23:06:25.549Z,99.90
2022-10-08T23:08:55.955Z,99.90
2022-10-08T23:11:23.440Z,99.90
2022-10-08T23:13:55.508Z,99.90
2022-10-08T23:16:24.542Z,99.90
2022-10-08T23:18:55.477Z,99.90
2022-10-08T23:21:23.351Z,99.90
2022-10-08T23:23:54.523Z,99.90
2022-10-08T23:26:23.214Z,99.90
2022-10-08T23:28:52.456Z,99.90
2022-10-08T23:31:22.431Z,99.90
2022-10-08T23:33:51.422Z,99.90
2022-10-08T23:36:42.425Z,99.90
2022-10-08T23:39:13.420Z,99.90
2022-10-08T23:41:41.515Z,99.90
2022-10-08T23:44:10.283Z,99.90
2022-10-08T23:46:38.047Z,99.90
2022-10-08T23:49:05.246Z,99.90
2022-10-08T23:51:32.514Z,99.90
2022-10-08T23:54:01.385Z,99.90
2022-10-08T23:56:29.526Z,99.90
2022-10-08T23:58:57.404Z,99.90
